createdAt,value
2019-03-13T00:00:50.464Z,65.75
2019-03-13T00:01:50.491Z,65.84
2019-03-13T00:02:50.528Z,65.56
2019-03-13T00:03:50.600Z,66.61
2019-03-13T00:04:50.585Z,66.03
2019-03-13T00:05:50.617Z,65.94
2019-03-13T00:06:50.999Z,66.52
2019-03-13T00:07:50.733Z,66.61
2019-03-13T00:09:50.783Z,66.71
2019-03-13T00:10:50.792Z,66.52
2019-03-13T00:11:50.945Z,66.19
2019-03-13T00:12:50.827Z,66.19
2019-03-13T00:13:51.202Z,66.33
2019-03-13T00:14:50.931Z,66.52
2019-03-13T00:15:50.917Z,66.23
2019-03-13T00:16:50.936Z,66.33
2019-03-13T00:17:50.973Z,66.42
2019-03-13T00:18:51.055Z,66.29
2019-03-13T00:19:51.083Z,66.52
2019-03-13T00:20:51.511Z,66.42
2019-03-13T00:21:51.144Z,66.33
2019-03-13T00:22:51.265Z,66.39
2019-03-13T00:23:51.199Z,66.42
2019-03-13T00:24:51.186Z,66.10
2019-03-13T00:25:51.271Z,66.77
2019-03-13T00:26:51.294Z,66.90
2019-03-13T00:27:51.574Z,66.77
2019-03-13T00:28:51.292Z,66.96
2019-03-13T00:29:51.376Z,66.96
2019-03-13T00:30:51.402Z,66.67
2019-03-13T00:31:51.390Z,66.67
2019-03-13T00:32:51.467Z,66.67
2019-03-13T00:33:51.493Z,66.10
2019-03-13T00:34:51.939Z,66.67
2019-03-13T00:35:51.516Z,66.86
2019-03-13T00:36:51.537Z,66.90
2019-03-13T00:37:51.575Z,66.86
2019-03-13T00:38:51.596Z,66.67
2019-03-13T00:39:51.772Z,66.86
2019-03-13T00:40:52.006Z,66.67
2019-03-13T00:41:51.685Z,66.77
2019-03-13T00:42:51.715Z,66.77
2019-03-13T00:43:51.742Z,67.25
2019-03-13T00:44:51.928Z,67.16
2019-03-13T00:45:51.797Z,66.77
2019-03-13T00:46:52.182Z,66.39
2019-03-13T00:47:51.869Z,66.77
2019-03-13T00:48:51.966Z,66.77
2019-03-13T00:49:51.964Z,66.67
2019-03-13T00:50:51.961Z,66.77
2019-03-13T00:51:52.042Z,66.86
2019-03-13T00:52:52.361Z,66.96
2019-03-13T00:53:52.036Z,66.96
2019-03-13T00:54:52.070Z,67.16
2019-03-13T00:55:52.146Z,67.06
2019-03-13T00:56:52.134Z,67.16
2019-03-13T00:57:52.222Z,67.25
2019-03-13T00:58:52.242Z,67.73
2019-03-13T00:59:52.514Z,67.63
2019-03-13T01:00:52.248Z,66.86
2019-03-13T01:01:52.276Z,67.06
2019-03-13T01:02:52.365Z,67.06
2019-03-13T01:03:52.379Z,66.77
2019-03-13T01:04:52.512Z,67.06
2019-03-13T01:05:52.397Z,67.73
2019-03-13T01:06:52.767Z,66.96
2019-03-13T01:07:52.497Z,66.86
2019-03-13T01:08:52.536Z,67.06
2019-03-13T01:09:52.507Z,66.86
2019-03-13T01:10:52.593Z,66.67
2019-03-13T01:11:52.573Z,66.67
2019-03-13T01:12:52.604Z,66.67
2019-03-13T01:13:52.981Z,66.58
2019-03-13T01:14:52.712Z,66.86
2019-03-13T01:15:52.743Z,66.86
2019-03-13T01:17:52.749Z,66.77
2019-03-13T01:18:52.823Z,66.77
2019-03-13T01:19:52.805Z,67.25
2019-03-13T01:20:53.183Z,67.06
2019-03-13T01:21:52.860Z,67.63
2019-03-13T01:22:52.946Z,67.35
2019-03-13T01:23:52.919Z,66.96
2019-03-13T01:24:52.952Z,66.67
2019-03-13T01:25:53.028Z,66.96
2019-03-13T01:26:53.060Z,66.77
2019-03-13T01:27:53.388Z,67.25
2019-03-13T01:28:53.121Z,67.06
2019-03-13T01:29:53.151Z,66.58
2019-03-13T01:30:53.180Z,66.67
2019-03-13T01:31:53.165Z,66.77
2019-03-13T01:32:53.188Z,66.67
2019-03-13T01:33:53.338Z,66.96
2019-03-13T01:34:53.608Z,66.67
2019-03-13T01:35:53.688Z,66.96
2019-03-13T01:36:53.661Z,67.06
2019-03-13T01:37:53.393Z,67.06
2019-03-13T01:38:53.361Z,67.25
2019-03-13T01:40:53.431Z,66.67
2019-03-13T01:41:53.811Z,67.06
2019-03-13T01:42:53.535Z,66.77
2019-03-13T01:43:53.522Z,66.67
2019-03-13T01:44:53.543Z,66.77
2019-03-13T01:45:53.578Z,66.77
2019-03-13T01:46:53.665Z,66.77
2019-03-13T01:47:53.695Z,66.86
2019-03-13T01:48:54.027Z,66.77
2019-03-13T01:49:53.748Z,67.06
2019-03-13T01:50:53.873Z,66.77
2019-03-13T01:51:53.752Z,66.86
2019-03-13T01:52:53.826Z,66.86
2019-03-13T01:53:53.813Z,66.86
2019-03-13T01:54:53.897Z,66.96
2019-03-13T01:55:54.219Z,66.77
2019-03-13T01:56:53.898Z,67.16
2019-03-13T01:57:53.948Z,67.54
2019-03-13T01:58:54.002Z,66.96
2019-03-13T01:59:53.987Z,66.86
2019-03-13T02:00:54.014Z,67.06
2019-03-13T02:01:54.095Z,66.96
2019-03-13T02:02:54.727Z,67.25
2019-03-13T02:03:54.098Z,67.25
2019-03-13T02:04:54.189Z,66.86
2019-03-13T02:05:54.157Z,66.96
2019-03-13T02:06:54.194Z,67.16
2019-03-13T02:07:54.274Z,67.06
2019-03-13T02:08:54.244Z,67.54
2019-03-13T02:10:54.659Z,67.54
2019-03-13T02:11:54.694Z,67.54
2019-03-13T02:12:54.419Z,66.96
2019-03-13T02:13:54.559Z,67.16
2019-03-13T02:14:54.429Z,67.06
2019-03-13T02:15:54.512Z,66.86
2019-03-13T02:16:54.536Z,67.44
2019-03-13T02:17:54.819Z,66.96
2019-03-13T02:18:54.603Z,67.54
2019-03-13T02:19:54.584Z,67.63
2019-03-13T02:20:54.603Z,67.35
2019-03-13T02:21:54.686Z,67.44
2019-03-13T02:22:54.717Z,67.44
2019-03-13T02:23:54.691Z,67.35
2019-03-13T02:24:55.170Z,67.25
2019-03-13T02:25:54.796Z,66.86
2019-03-13T02:26:54.824Z,67.63
2019-03-13T02:27:54.807Z,67.25
2019-03-13T02:28:54.885Z,67.54
2019-03-13T02:29:55.021Z,67.92
2019-03-13T02:30:54.961Z,67.89
2019-03-13T02:31:55.281Z,67.92
2019-03-13T02:32:55.012Z,68.21
2019-03-13T02:33:55.136Z,67.83
2019-03-13T02:34:55.019Z,68.56
2019-03-13T02:35:55.047Z,68.30
2019-03-13T02:36:55.127Z,68.21
2019-03-13T02:37:55.156Z,68.08
2019-03-13T02:38:55.493Z,67.99
2019-03-13T02:39:55.216Z,67.92
2019-03-13T02:40:55.254Z,68.27
2019-03-13T02:41:55.274Z,68.21
2019-03-13T02:42:55.303Z,68.59
2019-03-13T02:43:55.333Z,68.50
2019-03-13T02:44:55.313Z,68.50
2019-03-13T02:45:55.703Z,68.50
2019-03-13T02:46:55.453Z,68.40
2019-03-13T02:47:55.450Z,68.46
2019-03-13T02:48:55.431Z,67.79
2019-03-13T02:49:55.454Z,68.40
2019-03-13T02:50:55.564Z,67.73
2019-03-13T02:51:55.568Z,67.35
2019-03-13T02:52:55.897Z,67.44
2019-03-13T02:53:55.732Z,67.44
2019-03-13T02:54:55.656Z,67.02
2019-03-13T02:55:55.689Z,67.35
2019-03-13T02:57:55.746Z,67.25
2019-03-13T02:58:56.086Z,67.06
2019-03-13T02:59:55.911Z,67.25
2019-03-13T03:00:55.829Z,67.83
2019-03-13T03:01:55.865Z,67.83
2019-03-13T03:02:55.896Z,67.73
2019-03-13T03:03:56.030Z,67.54
2019-03-13T03:04:56.366Z,67.83
2019-03-13T03:05:55.984Z,68.12
2019-03-13T03:06:56.124Z,67.92
2019-03-13T03:07:56.255Z,67.16
2019-03-13T03:08:56.029Z,67.44
2019-03-13T03:09:56.052Z,67.92
2019-03-13T03:10:56.447Z,67.92
2019-03-13T03:11:56.160Z,68.12
2019-03-13T03:12:57.832Z,68.02
2019-03-13T03:13:56.212Z,68.08
2019-03-13T03:14:56.242Z,67.92
2019-03-13T03:15:56.231Z,68.50
2019-03-13T03:16:56.311Z,68.40
2019-03-13T03:17:56.635Z,68.50
2019-03-13T03:18:57.973Z,68.30
2019-03-13T03:19:56.387Z,68.02
2019-03-13T03:20:56.435Z,68.02
2019-03-13T03:21:56.452Z,68.40
2019-03-13T03:22:56.440Z,68.12
2019-03-13T03:23:56.455Z,67.83
2019-03-13T03:24:56.798Z,67.83
2019-03-13T03:25:56.519Z,68.21
2019-03-13T03:26:56.650Z,67.73
2019-03-13T03:27:56.714Z,67.83
2019-03-13T03:28:56.686Z,68.30
2019-03-13T03:29:56.637Z,67.92
2019-03-13T03:30:56.778Z,68.12
2019-03-13T03:31:57.058Z,68.02
2019-03-13T03:32:56.868Z,68.02
2019-03-13T03:33:56.802Z,67.92
2019-03-13T03:34:56.851Z,68.02
2019-03-13T03:35:56.867Z,68.02
2019-03-13T03:36:56.926Z,67.63
2019-03-13T03:37:56.942Z,67.54
2019-03-13T03:39:57.013Z,67.63
2019-03-13T03:40:56.974Z,67.63
2019-03-13T03:41:57.042Z,67.63
2019-03-13T03:42:57.022Z,67.73
2019-03-13T03:43:57.051Z,68.12
2019-03-13T03:44:57.482Z,67.73
2019-03-13T03:45:57.413Z,67.92
2019-03-13T03:46:57.189Z,67.44
2019-03-13T03:47:57.221Z,68.12
2019-03-13T03:48:57.352Z,67.92
2019-03-13T03:49:57.374Z,67.92
2019-03-13T03:50:57.307Z,67.92
2019-03-13T03:51:57.335Z,68.21
2019-03-13T03:52:57.726Z,68.12
2019-03-13T03:53:57.397Z,68.40
2019-03-13T03:54:57.380Z,68.40
2019-03-13T03:55:57.452Z,67.83
2019-03-13T03:56:57.482Z,68.02
2019-03-13T03:57:57.542Z,68.02
2019-03-13T03:58:57.600Z,68.12
2019-03-13T03:59:57.922Z,68.30
2019-03-13T04:00:57.557Z,67.83
2019-03-13T04:01:57.581Z,68.50
2019-03-13T04:02:57.660Z,68.69
2019-03-13T04:03:57.641Z,67.73
2019-03-13T04:04:57.720Z,67.92
2019-03-13T04:07:57.822Z,68.02
2019-03-13T04:08:58.090Z,68.30
2019-03-13T04:09:57.994Z,68.40
2019-03-13T04:10:57.851Z,68.40
2019-03-13T04:11:57.924Z,68.21
2019-03-13T04:13:57.991Z,67.54
2019-03-13T04:14:58.109Z,67.35
2019-03-13T04:15:58.302Z,66.96
2019-03-13T04:16:58.070Z,67.06
2019-03-13T04:17:58.050Z,67.25
2019-03-13T04:18:58.233Z,67.35
2019-03-13T04:19:58.112Z,67.25
2019-03-13T04:20:58.138Z,67.54
2019-03-13T04:21:58.232Z,67.25
2019-03-13T04:22:58.559Z,67.54
2019-03-13T04:23:58.236Z,66.86
2019-03-13T04:24:58.308Z,66.77
2019-03-13T04:25:58.346Z,66.67
2019-03-13T04:26:58.366Z,67.06
2019-03-13T04:27:58.397Z,66.96
2019-03-13T04:28:58.376Z,66.77
2019-03-13T04:29:58.760Z,66.77
2019-03-13T04:30:58.500Z,66.77
2019-03-13T04:31:58.461Z,67.35
2019-03-13T04:32:58.554Z,66.86
2019-03-13T04:33:58.537Z,66.77
2019-03-13T04:34:58.550Z,67.25
2019-03-13T04:35:58.647Z,67.06
2019-03-13T04:36:58.966Z,66.77
2019-03-13T04:37:58.643Z,67.25
2019-03-13T04:38:58.669Z,66.86
2019-03-13T04:39:58.803Z,66.77
2019-03-13T04:40:59.087Z,67.16
2019-03-13T04:41:58.816Z,66.86
2019-03-13T04:42:58.845Z,66.86
2019-03-13T04:43:59.210Z,66.67
2019-03-13T04:44:58.908Z,66.86
2019-03-13T04:45:58.923Z,67.44
2019-03-13T04:46:58.955Z,67.54
2019-03-13T04:47:58.992Z,67.25
2019-03-13T04:48:59.012Z,67.73
2019-03-13T04:49:59.146Z,67.54
2019-03-13T04:50:59.379Z,67.54
2019-03-13T04:51:59.204Z,67.06
2019-03-13T04:52:59.086Z,67.25
2019-03-13T04:53:59.161Z,67.54
2019-03-13T04:54:59.144Z,67.54
2019-03-13T04:55:59.226Z,67.54
2019-03-13T04:56:59.200Z,67.63
2019-03-13T04:57:59.581Z,67.54
2019-03-13T04:58:59.424Z,67.83
2019-03-13T04:59:59.334Z,68.02
2019-03-13T05:00:59.364Z,67.92
2019-03-13T05:01:59.344Z,67.44
2019-03-13T05:02:59.436Z,67.73
2019-03-13T05:03:59.403Z,67.83
2019-03-13T05:04:59.794Z,67.73
2019-03-13T05:05:59.465Z,67.44
2019-03-13T05:06:59.557Z,67.63
2019-03-13T05:07:59.527Z,68.02
2019-03-13T05:08:59.551Z,67.63
2019-03-13T05:09:59.629Z,67.92
2019-03-13T05:10:59.614Z,67.92
2019-03-13T05:12:00.024Z,67.63
2019-03-13T05:12:59.763Z,67.25
2019-03-13T05:13:59.704Z,67.63
2019-03-13T05:14:59.732Z,67.83
2019-03-13T05:15:59.762Z,67.92
2019-03-13T05:16:59.834Z,67.73
2019-03-13T05:17:59.920Z,67.83
2019-03-13T05:19:00.198Z,68.40
2019-03-13T05:19:59.875Z,67.73
2019-03-13T05:20:59.924Z,67.54
2019-03-13T05:21:59.992Z,67.63
2019-03-13T05:23:00.016Z,67.25
2019-03-13T05:23:59.999Z,67.73
2019-03-13T05:26:00.101Z,67.06
2019-03-13T05:27:00.459Z,67.06
2019-03-13T05:28:00.166Z,67.25
2019-03-13T05:29:00.299Z,67.44
2019-03-13T05:30:00.410Z,67.25
2019-03-13T05:31:00.250Z,67.73
2019-03-13T05:32:00.244Z,67.63
2019-03-13T05:33:00.359Z,68.02
2019-03-13T05:34:00.596Z,67.35
2019-03-13T05:35:00.445Z,67.35
2019-03-13T05:36:00.436Z,67.35
2019-03-13T05:37:00.538Z,67.35
2019-03-13T05:38:00.405Z,67.35
2019-03-13T05:39:00.526Z,67.16
2019-03-13T05:40:00.529Z,67.63
2019-03-13T05:42:00.826Z,66.86
2019-03-13T05:43:00.626Z,66.86
2019-03-13T05:44:00.637Z,66.10
2019-03-13T05:45:00.734Z,66.77
2019-03-13T05:46:00.650Z,66.77
2019-03-13T05:47:00.679Z,67.25
2019-03-13T05:48:00.703Z,67.25
2019-03-13T05:49:01.085Z,67.63
2019-03-13T05:50:00.773Z,67.06
2019-03-13T05:51:00.837Z,66.86
2019-03-13T05:52:00.824Z,66.77
2019-03-13T05:53:00.897Z,66.86
2019-03-13T05:55:00.904Z,66.10
2019-03-13T05:56:01.287Z,66.29
2019-03-13T05:58:01.049Z,67.06
2019-03-13T05:59:01.081Z,67.44
2019-03-13T06:01:01.132Z,67.25
2019-03-13T06:02:01.199Z,67.25
2019-03-13T06:03:01.449Z,67.54
2019-03-13T06:04:01.170Z,67.44
2019-03-13T06:05:01.204Z,67.54
2019-03-13T06:06:01.285Z,67.25
2019-03-13T06:07:01.321Z,67.63
2019-03-13T06:09:01.471Z,67.54
2019-03-13T06:10:01.656Z,67.25
2019-03-13T06:11:01.403Z,67.44
2019-03-13T06:12:01.459Z,67.54
2019-03-13T06:13:01.499Z,67.54
2019-03-13T06:14:01.476Z,67.54
2019-03-13T06:15:03.576Z,67.16
2019-03-13T06:16:01.582Z,67.06
2019-03-13T06:18:01.652Z,67.54
2019-03-13T06:20:01.752Z,67.54
2019-03-13T06:21:01.678Z,67.44
2019-03-13T06:22:01.705Z,67.25
2019-03-13T06:23:01.737Z,67.54
2019-03-13T06:24:02.064Z,67.63
2019-03-13T06:25:02.154Z,67.35
2019-03-13T06:26:01.824Z,67.44
2019-03-13T06:27:01.955Z,67.06
2019-03-13T06:28:01.978Z,67.35
2019-03-13T06:29:01.971Z,67.73
2019-03-13T06:31:02.020Z,67.16
2019-03-13T06:32:02.006Z,67.25
2019-03-13T06:33:02.084Z,67.06
2019-03-13T06:34:02.113Z,66.67
2019-03-13T06:35:02.138Z,66.86
2019-03-13T06:36:02.173Z,67.54
2019-03-13T06:38:02.279Z,66.86
2019-03-13T06:39:02.255Z,66.58
2019-03-13T06:40:02.289Z,66.86
2019-03-13T06:41:05.131Z,66.67
2019-03-13T06:42:02.347Z,66.29
2019-03-13T06:43:02.613Z,66.29
2019-03-13T06:44:02.358Z,66.67
2019-03-13T06:45:02.732Z,66.29
2019-03-13T06:46:02.480Z,66.19
2019-03-13T06:47:02.513Z,66.67
2019-03-13T06:48:02.564Z,66.29
2019-03-13T06:49:02.553Z,66.19
2019-03-13T06:51:02.613Z,66.00
2019-03-13T06:52:03.243Z,66.58
2019-03-13T06:53:02.672Z,66.49
2019-03-13T06:54:02.705Z,66.49
2019-03-13T06:55:02.735Z,66.49
2019-03-13T06:56:02.713Z,66.49
2019-03-13T06:57:02.746Z,66.19
2019-03-13T06:58:03.117Z,66.10
2019-03-13T06:59:02.957Z,67.16
2019-03-13T07:00:02.880Z,66.96
2019-03-13T07:01:02.900Z,67.06
2019-03-13T07:02:02.904Z,67.06
2019-03-13T07:03:02.973Z,67.16
2019-03-13T07:04:03.247Z,66.96
2019-03-13T07:05:03.028Z,66.77
2019-03-13T07:06:03.059Z,66.67
2019-03-13T07:08:03.116Z,66.49
2019-03-13T07:09:03.090Z,67.16
2019-03-13T07:10:03.484Z,67.54
2019-03-13T07:11:03.154Z,66.77
2019-03-13T07:12:03.237Z,66.29
2019-03-13T07:13:03.263Z,66.49
2019-03-13T07:14:03.298Z,66.10
2019-03-13T07:15:03.316Z,66.86
2019-03-13T07:16:03.308Z,66.96
2019-03-13T07:17:03.627Z,66.77
2019-03-13T07:18:03.404Z,66.77
2019-03-13T07:19:03.507Z,66.58
2019-03-13T07:20:03.429Z,66.29
2019-03-13T07:21:03.501Z,66.29
2019-03-13T07:22:03.497Z,66.49
2019-03-13T07:23:03.557Z,66.29
2019-03-13T07:24:03.544Z,66.86
2019-03-13T07:25:03.578Z,66.10
2019-03-13T07:26:03.753Z,66.29
2019-03-13T07:27:03.726Z,66.29
2019-03-13T07:28:03.815Z,66.49
2019-03-13T07:29:12.156Z,66.29
2019-03-13T07:30:03.715Z,66.58
2019-03-13T07:31:03.794Z,66.49
2019-03-13T07:32:03.779Z,66.77
2019-03-13T07:33:03.853Z,66.67
2019-03-13T07:34:03.836Z,66.86
2019-03-13T07:35:03.870Z,66.49
2019-03-13T07:36:04.251Z,66.49
2019-03-13T07:37:03.917Z,66.58
2019-03-13T07:38:04.004Z,66.49
2019-03-13T07:39:03.983Z,66.29
2019-03-13T07:40:04.010Z,66.58
2019-03-13T07:41:04.087Z,66.49
2019-03-13T07:42:04.434Z,66.29
2019-03-13T07:43:04.145Z,66.58
2019-03-13T07:44:04.160Z,66.00
2019-03-13T07:45:04.173Z,66.29
2019-03-13T07:46:04.184Z,66.29
2019-03-13T07:47:04.214Z,66.49
2019-03-13T07:48:04.320Z,66.10
2019-03-13T07:49:04.280Z,65.52
2019-03-13T07:50:04.306Z,66.19
2019-03-13T07:51:04.405Z,66.19
2019-03-13T07:52:04.372Z,65.62
2019-03-13T07:53:04.455Z,65.91
2019-03-13T07:54:04.478Z,65.62
2019-03-13T07:55:04.456Z,65.81
2019-03-13T07:56:04.555Z,65.23
2019-03-13T07:57:04.570Z,65.23
2019-03-13T07:58:04.548Z,65.23
2019-03-13T07:59:04.621Z,65.62
2019-03-13T08:00:04.662Z,65.33
2019-03-13T08:01:04.693Z,65.23
2019-03-13T08:02:04.664Z,65.81
2019-03-13T08:04:05.582Z,66.00
2019-03-13T08:05:04.799Z,66.49
2019-03-13T08:07:04.887Z,66.19
2019-03-13T08:08:04.847Z,66.19
2019-03-13T08:09:04.873Z,66.00
2019-03-13T08:10:04.955Z,65.62
2019-03-13T08:11:04.980Z,65.81
2019-03-13T08:13:05.292Z,65.81
2019-03-13T08:14:05.043Z,65.62
2019-03-13T08:15:05.099Z,65.81
2019-03-13T08:17:05.160Z,65.62
2019-03-13T08:18:05.139Z,65.62
2019-03-13T08:19:05.166Z,65.52
2019-03-13T08:20:05.244Z,65.81
2019-03-13T08:21:05.227Z,65.72
2019-03-13T08:22:05.304Z,65.52
2019-03-13T08:23:05.297Z,65.52
2019-03-13T08:24:05.368Z,65.33
2019-03-13T08:25:07.913Z,65.14
2019-03-13T08:26:05.382Z,64.76
2019-03-13T08:27:05.412Z,65.52
2019-03-13T08:28:05.458Z,65.14
2019-03-13T08:29:05.524Z,65.14
2019-03-13T08:30:05.506Z,65.14
2019-03-13T08:31:05.581Z,64.85
2019-03-13T08:33:05.747Z,65.14
2019-03-13T08:34:05.620Z,65.05
2019-03-13T08:35:05.662Z,65.43
2019-03-13T08:37:05.757Z,65.23
2019-03-13T08:38:06.054Z,64.95
2019-03-13T08:39:05.816Z,64.85
2019-03-13T08:40:05.850Z,65.52
2019-03-13T08:41:05.947Z,64.66
2019-03-13T08:43:05.935Z,64.31
2019-03-13T08:44:05.920Z,64.28
2019-03-13T08:45:06.298Z,64.66
2019-03-13T08:46:05.979Z,65.23
2019-03-13T08:47:06.005Z,65.05
2019-03-13T08:48:06.082Z,64.66
2019-03-13T08:49:06.110Z,65.14
2019-03-13T08:50:06.092Z,64.37
2019-03-13T08:51:06.175Z,65.05
2019-03-13T08:52:06.475Z,64.95
2019-03-13T08:53:06.338Z,64.95
2019-03-13T08:54:06.379Z,64.28
2019-03-13T08:55:06.302Z,65.05
2019-03-13T08:56:06.342Z,65.52
2019-03-13T08:57:06.450Z,65.05
2019-03-13T08:58:06.394Z,65.52
2019-03-13T09:00:06.483Z,65.91
2019-03-13T09:01:06.473Z,65.33
2019-03-13T09:02:06.478Z,65.23
2019-03-13T09:03:06.544Z,65.14
2019-03-13T09:04:06.513Z,65.52
2019-03-13T09:05:06.873Z,65.52
2019-03-13T09:06:06.677Z,65.33
2019-03-13T09:07:06.651Z,65.33
2019-03-13T09:08:06.635Z,64.66
2019-03-13T09:09:06.658Z,65.14
2019-03-13T09:10:06.748Z,64.66
2019-03-13T09:11:06.721Z,64.76
2019-03-13T09:12:07.103Z,65.17
2019-03-13T09:13:06.842Z,64.28
2019-03-13T09:14:06.821Z,64.95
2019-03-13T09:15:06.873Z,64.85
2019-03-13T09:16:06.872Z,65.14
2019-03-13T09:17:06.963Z,64.66
2019-03-13T09:18:06.937Z,64.89
2019-03-13T09:19:07.321Z,64.28
2019-03-13T09:20:06.989Z,64.66
2019-03-13T09:21:07.042Z,64.95
2019-03-13T09:22:07.103Z,65.05
2019-03-13T09:24:07.171Z,64.56
2019-03-13T09:25:12.369Z,65.05
2019-03-13T09:26:07.472Z,64.18
2019-03-13T09:27:07.197Z,64.37
2019-03-13T09:28:07.228Z,65.05
2019-03-13T09:29:07.328Z,64.85
2019-03-13T09:30:07.447Z,64.95
2019-03-13T09:31:07.365Z,64.66
2019-03-13T09:32:07.404Z,64.85
2019-03-13T09:33:07.728Z,65.05
2019-03-13T09:34:07.455Z,65.05
2019-03-13T09:35:07.442Z,64.85
2019-03-13T09:37:07.554Z,65.23
2019-03-13T09:38:07.554Z,65.05
2019-03-13T09:39:07.628Z,65.05
2019-03-13T09:40:07.889Z,64.95
2019-03-13T09:41:07.624Z,65.05
2019-03-13T09:44:07.761Z,64.18
2019-03-13T09:45:07.790Z,64.47
2019-03-13T09:46:07.820Z,64.47
2019-03-13T09:47:07.809Z,64.37
2019-03-13T09:48:07.883Z,64.18
2019-03-13T09:49:07.928Z,64.69
2019-03-13T09:50:07.908Z,64.89
2019-03-13T09:51:07.928Z,64.76
2019-03-13T09:52:07.943Z,64.02
2019-03-13T09:53:08.274Z,64.89
2019-03-13T09:54:08.010Z,64.37
2019-03-13T09:55:08.087Z,64.50
2019-03-13T09:56:08.124Z,64.22
2019-03-13T09:57:08.144Z,64.22
2019-03-13T09:58:08.276Z,64.22
2019-03-13T09:59:08.510Z,64.18
2019-03-13T10:00:08.233Z,64.22
2019-03-13T10:01:08.216Z,64.37
2019-03-13T10:02:08.237Z,64.31
2019-03-13T10:03:08.269Z,64.31
2019-03-13T10:04:08.305Z,64.12
2019-03-13T10:05:08.683Z,64.22
2019-03-13T10:06:08.362Z,64.31
2019-03-13T10:07:08.552Z,64.02
2019-03-13T10:08:08.466Z,64.28
2019-03-13T10:09:08.452Z,64.02
2019-03-13T10:10:08.538Z,63.92
2019-03-13T10:11:08.521Z,64.22
2019-03-13T10:12:08.899Z,63.79
2019-03-13T10:13:08.581Z,64.09
2019-03-13T10:14:08.600Z,63.92
2019-03-13T10:15:08.687Z,64.02
2019-03-13T10:16:08.715Z,64.31
2019-03-13T10:17:10.928Z,64.40
2019-03-13T10:18:08.783Z,64.02
2019-03-13T10:19:09.108Z,64.12
2019-03-13T10:20:08.787Z,63.83
2019-03-13T10:21:08.857Z,64.02
2019-03-13T10:22:08.900Z,64.40
2019-03-13T10:23:08.921Z,64.31
2019-03-13T10:24:08.898Z,64.28
2019-03-13T10:25:08.984Z,64.02
2019-03-13T10:27:09.052Z,63.99
2019-03-13T10:28:09.023Z,64.50
2019-03-13T10:29:09.132Z,64.37
2019-03-13T10:30:09.140Z,64.22
2019-03-13T10:31:09.169Z,64.31
2019-03-13T10:32:09.143Z,64.02
2019-03-13T10:33:09.477Z,63.92
2019-03-13T10:34:09.200Z,63.92
2019-03-13T10:35:09.277Z,64.28
2019-03-13T10:36:09.322Z,63.79
2019-03-13T10:37:09.292Z,63.92
2019-03-13T10:38:14.227Z,63.70
2019-03-13T10:39:09.410Z,63.92
2019-03-13T10:40:09.683Z,64.22
2019-03-13T10:42:09.509Z,64.09
2019-03-13T10:43:09.531Z,64.18
2019-03-13T10:44:09.513Z,63.73
2019-03-13T10:45:09.543Z,63.70
2019-03-13T10:46:09.559Z,64.18
2019-03-13T10:47:09.940Z,64.18
2019-03-13T10:48:10.074Z,64.02
2019-03-13T10:49:09.714Z,63.92
2019-03-13T10:50:09.682Z,64.02
2019-03-13T10:51:09.707Z,64.31
2019-03-13T10:52:09.734Z,64.22
2019-03-13T10:54:09.850Z,64.02
2019-03-13T10:55:09.888Z,63.73
2019-03-13T10:56:09.905Z,64.31
2019-03-13T10:57:09.948Z,64.31
2019-03-13T10:58:09.921Z,64.28
2019-03-13T10:59:10.001Z,64.22
2019-03-13T11:00:10.031Z,63.79
2019-03-13T11:01:10.363Z,64.37
2019-03-13T11:02:10.041Z,64.09
2019-03-13T11:03:10.065Z,64.31
2019-03-13T11:04:10.149Z,64.18
2019-03-13T11:05:10.276Z,64.28
2019-03-13T11:06:10.215Z,64.18
2019-03-13T11:07:10.188Z,64.28
2019-03-13T11:08:10.213Z,64.18
2019-03-13T11:09:10.305Z,64.37
2019-03-13T11:11:10.379Z,64.09
2019-03-13T11:12:10.411Z,64.18
2019-03-13T11:13:10.437Z,63.99
2019-03-13T11:14:15.660Z,64.09
2019-03-13T11:15:10.482Z,64.18
2019-03-13T11:16:10.510Z,63.99
2019-03-13T11:17:10.534Z,64.18
2019-03-13T11:19:10.605Z,64.40
2019-03-13T11:20:10.880Z,64.50
2019-03-13T11:21:10.599Z,63.83
2019-03-13T11:22:10.692Z,64.47
2019-03-13T11:23:10.741Z,64.09
2019-03-13T11:24:10.698Z,64.12
2019-03-13T11:25:10.774Z,64.28
2019-03-13T11:26:11.110Z,64.02
2019-03-13T11:27:10.828Z,64.12
2019-03-13T11:28:10.835Z,64.12
2019-03-13T11:29:10.897Z,64.37
2019-03-13T11:31:10.918Z,64.40
2019-03-13T11:32:11.284Z,63.83
2019-03-13T11:33:10.960Z,64.31
2019-03-13T11:34:11.045Z,63.99
2019-03-13T11:35:11.075Z,63.99
2019-03-13T11:36:11.101Z,64.12
2019-03-13T11:37:11.147Z,64.22
2019-03-13T11:39:11.191Z,64.22
2019-03-13T11:40:11.469Z,64.02
2019-03-13T11:41:11.205Z,64.02
2019-03-13T11:42:11.282Z,63.73
2019-03-13T11:43:11.320Z,64.02
2019-03-13T11:44:11.296Z,63.73
2019-03-13T11:45:11.370Z,63.73
2019-03-13T11:46:11.353Z,63.73
2019-03-13T11:47:11.486Z,64.02
2019-03-13T11:48:11.475Z,64.02
2019-03-13T11:49:11.494Z,63.92
2019-03-13T11:50:11.534Z,63.83
2019-03-13T11:51:11.563Z,63.45
2019-03-13T11:52:11.529Z,63.73
2019-03-13T11:53:11.612Z,63.35
2019-03-13T11:54:11.720Z,63.92
2019-03-13T11:55:11.674Z,63.45
2019-03-13T11:56:11.652Z,63.35
2019-03-13T11:57:11.796Z,63.45
2019-03-13T11:58:12.063Z,63.83
2019-03-13T11:59:11.798Z,63.54
2019-03-13T12:00:11.793Z,63.64
2019-03-13T12:01:11.800Z,63.64
2019-03-13T12:02:11.882Z,63.64
2019-03-13T12:03:11.874Z,63.92
2019-03-13T12:04:11.955Z,63.83
2019-03-13T12:05:12.293Z,63.54
2019-03-13T12:06:11.972Z,63.54
2019-03-13T12:07:12.045Z,63.45
2019-03-13T12:08:12.016Z,63.35
2019-03-13T12:09:12.142Z,63.16
2019-03-13T12:10:12.128Z,63.06
2019-03-13T12:12:12.240Z,62.68
2019-03-13T12:13:12.168Z,62.96
2019-03-13T12:14:12.204Z,63.06
2019-03-13T12:16:12.311Z,63.64
2019-03-13T12:17:12.343Z,63.54
2019-03-13T12:18:12.322Z,64.02
2019-03-13T12:19:12.394Z,63.83
2019-03-13T12:20:12.378Z,63.73
2019-03-13T12:21:12.457Z,63.54
2019-03-13T12:23:12.467Z,63.64
2019-03-13T12:24:12.546Z,63.73
2019-03-13T12:25:12.573Z,63.54
2019-03-13T12:26:12.901Z,63.54
2019-03-13T12:27:12.637Z,63.35
2019-03-13T12:28:12.612Z,63.83
2019-03-13T12:29:12.692Z,63.83
2019-03-13T12:30:12.678Z,63.54
2019-03-13T12:31:14.135Z,63.35
2019-03-13T12:32:12.791Z,63.25
2019-03-13T12:33:12.766Z,63.06
2019-03-13T12:34:12.794Z,63.64
2019-03-13T12:35:12.871Z,63.35
2019-03-13T12:36:12.857Z,63.45
2019-03-13T12:37:13.238Z,63.54
2019-03-13T12:38:12.970Z,63.64
2019-03-13T12:39:13.007Z,63.45
2019-03-13T12:40:12.980Z,63.45
2019-03-13T12:41:13.074Z,63.32
2019-03-13T12:42:13.088Z,63.73
2019-03-13T12:43:13.116Z,63.16
2019-03-13T12:44:13.402Z,63.64
2019-03-13T12:45:13.180Z,63.45
2019-03-13T12:46:13.165Z,62.96
2019-03-13T12:47:13.235Z,63.35
2019-03-13T12:48:17.038Z,63.54
2019-03-13T12:49:13.246Z,63.32
2019-03-13T12:50:13.329Z,63.42
2019-03-13T12:51:13.654Z,63.45
2019-03-13T12:52:13.355Z,63.64
2019-03-13T12:53:13.432Z,63.64
2019-03-13T12:55:13.581Z,63.45
2019-03-13T12:56:13.507Z,63.54
2019-03-13T12:57:13.534Z,63.45
2019-03-13T12:58:13.903Z,63.35
2019-03-13T12:59:13.605Z,63.73
2019-03-13T13:00:13.588Z,63.54
2019-03-13T13:01:13.670Z,63.54
2019-03-13T13:02:13.640Z,63.35
2019-03-13T13:03:13.665Z,63.45
2019-03-13T13:04:13.698Z,63.73
2019-03-13T13:05:14.020Z,63.64
2019-03-13T13:06:13.801Z,63.73
2019-03-13T13:07:13.831Z,63.54
2019-03-13T13:08:13.812Z,63.45
2019-03-13T13:09:13.899Z,63.54
2019-03-13T13:10:13.932Z,63.64
2019-03-13T13:11:13.952Z,63.64
2019-03-13T13:12:14.287Z,63.89
2019-03-13T13:13:14.008Z,63.70
2019-03-13T13:14:13.992Z,63.70
2019-03-13T13:15:14.028Z,63.54
2019-03-13T13:16:14.106Z,63.79
2019-03-13T13:17:14.090Z,63.51
2019-03-13T13:18:14.167Z,63.51
2019-03-13T13:19:14.199Z,63.70
2019-03-13T13:20:14.170Z,63.99
2019-03-13T13:21:14.260Z,63.60
2019-03-13T13:22:14.239Z,63.79
2019-03-13T13:23:14.265Z,63.92
2019-03-13T13:24:14.347Z,63.51
2019-03-13T13:25:14.632Z,63.70
2019-03-13T13:26:14.348Z,63.70
2019-03-13T13:27:14.427Z,63.70
2019-03-13T13:28:14.564Z,63.79
2019-03-13T13:29:14.443Z,63.79
2019-03-13T13:30:14.464Z,63.79
2019-03-13T13:31:14.500Z,63.89
2019-03-13T13:32:14.878Z,63.89
2019-03-13T13:35:14.664Z,64.37
2019-03-13T13:36:14.702Z,63.89
2019-03-13T13:37:14.736Z,64.09
2019-03-13T13:38:14.765Z,63.89
2019-03-13T13:39:14.790Z,63.89